C.endeavour — E5U2790 — position and weather

sailwx.info

Track history (hours):
 
Tides and Currents Weather Stations Pressure Air Temp Water Temp Dewpoint Dewpoint Depression Visibility Wind Speed Wind Dir Waves Ship Positions

C.endeavour

Last reported at 2017-Nov-18 21:30 UTC. Time now 2017-Nov-18 21:53 UTC.
Position N 38°12' E 013°37'.

Length 88 m; draft 5.3 m.

Type: Cargo ship. MMSI: 518843000.

Date/timePositionNaut miles runAvg speedWind from/ knotsBaromVisibWave heightAir tempDewpointWater temp
2017-Nov-18 21:30N 38°12' E 013°37'3 5.9
2017-Nov-18 21:01N 38°13' E 013°34'3 5.9
2017-Nov-18 20:31N 38°14' E 013°30'3 5.6
2017-Nov-18 20:01N 38°15' E 013°27'3 5.7
2017-Nov-18 19:31N 38°15' E 013°23'3 5.7
2017-Nov-18 19:00N 38°15' E 013°19'3 5.5
2017-Nov-18 18:31N 38°15' E 013°16'3 5.5
2017-Nov-18 18:00N 38°14' E 013°12'3 5.5
2017-Nov-18 17:31N 38°14' E 013°09'3 5.5
2017-Nov-18 17:01N 38°14' E 013°05'3 5.7
2017-Nov-18 16:31N 38°14' E 013°02'3 5.6
2017-Nov-18 16:00N 38°14' E 012°58'4 7.0
2017-Nov-18 15:29N 38°14' E 012°54'5 7.1
2017-Nov-18 14:49N 38°14' E 012°48'2 7.1
2017-Nov-18 14:30N 38°14' E 012°45'4 7.4
2017-Nov-18 13:58N 38°13' E 012°40'  
2017-Nov-14 05:08N 35°55' W 005°17'110.2
2017-Nov-14 05:01N 35°55' W 005°18'611.1
2017-Nov-14 04:31N 35°57' W 005°24'261 7.3
2017-Nov-12 16:43N 38°20' W 009°59'2 8.4
2017-Nov-12 16:27N 38°22' W 009°59'4 8.2
2017-Nov-12 16:00N 38°26' W 010°00'4 8.1
2017-Nov-12 15:28N 38°30' W 010°02'4 8.0
2017-Nov-12 15:00N 38°33' W 010°03'4 7.8
2017-Nov-12 14:30N 38°37' W 010°04'4 7.6
2017-Nov-12 14:00N 38°41' W 010°05'4 7.5
2017-Nov-12 13:30N 38°45' W 010°05'4 7.9
2017-Nov-12 13:00N 38°49' W 010°05'4 7.7
2017-Nov-12 12:30N 38°52' W 010°05'4 7.7
2017-Nov-12 12:00N 38°56' W 010°05'4 7.9
2017-Nov-12 11:30N 39°00' W 010°05'4 8.2
2017-Nov-12 11:00N 39°04' W 010°05'5 8.1
2017-Nov-12 10:26N 39°09' W 010°05'  
2017-Nov-09 10:31N 48°14' W 006°22'32 7.5
2017-Nov-09 06:13N 48°42' W 005°60'  
Track history (hours):
 
Tides and Currents Weather Stations Pressure Air Temp Water Temp Dewpoint Dewpoint Depression Visibility Wind Speed Wind Dir Waves Ship Positions

C.endeavour

Last reported at 2017-Nov-18 21:30 UTC. Time now 2017-Nov-18 21:53 UTC.
Position N 38°12' E 013°37'.

Length 88 m; draft 5.3 m.

Type: Cargo ship. MMSI: 518843000.

Date/timePositionNaut miles runAvg speedWind from/ knotsBaromVisibWave heightAir tempDewpointWater temp
2017-Nov-18 21:30N 38°12' E 013°37'3 5.9
2017-Nov-18 21:01N 38°13' E 013°34'3 5.9
2017-Nov-18 20:31N 38°14' E 013°30'3 5.6
2017-Nov-18 20:01N 38°15' E 013°27'3 5.7
2017-Nov-18 19:31N 38°15' E 013°23'3 5.7
2017-Nov-18 19:00N 38°15' E 013°19'3 5.5
2017-Nov-18 18:31N 38°15' E 013°16'3 5.5
2017-Nov-18 18:00N 38°14' E 013°12'3 5.5
2017-Nov-18 17:31N 38°14' E 013°09'3 5.5
2017-Nov-18 17:01N 38°14' E 013°05'3 5.7
2017-Nov-18 16:31N 38°14' E 013°02'3 5.6
2017-Nov-18 16:00N 38°14' E 012°58'4 7.0
2017-Nov-18 15:29N 38°14' E 012°54'5 7.1
2017-Nov-18 14:49N 38°14' E 012°48'2 7.1
2017-Nov-18 14:30N 38°14' E 012°45'4 7.4
2017-Nov-18 13:58N 38°13' E 012°40'  
2017-Nov-14 05:08N 35°55' W 005°17'110.2
2017-Nov-14 05:01N 35°55' W 005°18'611.1
2017-Nov-14 04:31N 35°57' W 005°24'261 7.3
2017-Nov-12 16:43N 38°20' W 009°59'2 8.4
2017-Nov-12 16:27N 38°22' W 009°59'4 8.2
2017-Nov-12 16:00N 38°26' W 010°00'4 8.1
2017-Nov-12 15:28N 38°30' W 010°02'4 8.0
2017-Nov-12 15:00N 38°33' W 010°03'4 7.8
2017-Nov-12 14:30N 38°37' W 010°04'4 7.6
2017-Nov-12 14:00N 38°41' W 010°05'4 7.5
2017-Nov-12 13:30N 38°45' W 010°05'4 7.9
2017-Nov-12 13:00N 38°49' W 010°05'4 7.7
2017-Nov-12 12:30N 38°52' W 010°05'4 7.7
2017-Nov-12 12:00N 38°56' W 010°05'4 7.9
2017-Nov-12 11:30N 39°00' W 010°05'4 8.2
2017-Nov-12 11:00N 39°04' W 010°05'5 8.1
2017-Nov-12 10:26N 39°09' W 010°05'  
2017-Nov-09 10:31N 48°14' W 006°22'32 7.5
2017-Nov-09 06:13N 48°42' W 005°60'  

Dump ship's entire track history